createdAt,value
2019-05-01T00:00:45.001Z,93978.36
2019-05-01T00:03:23.585Z,93976.03
2019-05-01T00:05:56.052Z,93972.94
2019-05-01T00:08:24.244Z,93978.36
2019-05-01T00:10:52.720Z,93974.67
2019-05-01T00:13:21.200Z,93977.50
2019-05-01T00:15:49.388Z,93977.73
2019-05-01T00:18:17.576Z,93975.61
2019-05-01T00:20:45.762Z,93966.56
2019-05-01T00:23:13.960Z,93974.31
2019-05-01T00:25:42.143Z,93972.48
2019-05-01T00:28:10.340Z,93971.13
2019-05-01T00:30:38.523Z,93972.13
2019-05-01T00:33:07.008Z,93973.95
2019-05-01T00:35:35.187Z,93971.63
2019-05-01T00:38:03.674Z,93970.83
2019-05-01T00:40:32.027Z,93966.97
2019-05-01T00:43:00.223Z,93970.83
2019-05-01T00:45:28.410Z,93966.91
2019-05-01T00:47:56.874Z,93960.92
2019-05-01T00:50:25.761Z,93954.17
2019-05-01T00:52:53.956Z,93947.13
2019-05-01T00:55:38.958Z,93951.02
2019-05-01T00:58:11.995Z,93946.86
2019-05-01T01:00:48.054Z,93947.38
2019-05-01T01:03:16.536Z,93946.52
2019-05-01T01:05:44.727Z,93938.18
2019-05-01T01:08:12.919Z,93940.20
2019-05-01T01:10:41.102Z,93935.42
2019-05-01T01:13:09.299Z,93926.54
2019-05-01T01:15:37.494Z,93930.56
2019-05-01T01:18:05.679Z,93928.31
2019-05-01T01:20:33.866Z,93929.73
2019-05-01T01:23:02.349Z,93925.47
2019-05-01T01:25:30.528Z,93927.63
2019-05-01T01:27:58.721Z,93925.41
2019-05-01T01:30:26.901Z,93925.52
2019-05-01T01:32:55.097Z,93930.30
2019-05-01T01:35:23.624Z,93930.04
2019-05-01T01:37:51.810Z,93923.03
2019-05-01T01:40:20.015Z,93914.02
2019-05-01T01:42:49.827Z,93914.99
2019-05-01T01:45:19.664Z,93912.63
2019-05-01T01:48:05.638Z,93909.50
2019-05-01T01:50:34.177Z,93908.64
2019-05-01T01:53:02.708Z,93904.89
2019-05-01T01:55:30.904Z,93899.88
2019-05-01T01:57:59.085Z,93894.36
2019-05-01T02:00:28.919Z,93896.58
2019-05-01T02:02:58.747Z,93900.34
2019-05-01T02:05:28.856Z,93899.66
2019-05-01T02:07:57.034Z,93896.97
2019-05-01T02:10:25.337Z,93889.29
2019-05-01T02:12:53.588Z,93893.86
2019-05-01T02:15:21.779Z,93893.76
2019-05-01T02:17:50.242Z,93891.55
2019-05-01T02:20:18.433Z,93896.34
2019-05-01T02:22:46.616Z,93885.30
2019-05-01T02:25:15.987Z,93884.70
2019-05-01T02:28:02.395Z,93879.16
2019-05-01T02:30:30.660Z,93880.94
2019-05-01T02:32:58.847Z,93879.31
2019-05-01T02:35:30.375Z,93883.13
2019-05-01T02:37:57.244Z,93876.88
2019-05-01T02:40:37.443Z,93875.75
2019-05-01T02:43:05.629Z,93878.77
2019-05-01T02:45:34.158Z,93876.88
2019-05-01T02:48:02.344Z,93876.70
2019-05-01T02:50:30.542Z,93877.66
2019-05-01T02:52:58.993Z,93881.42
2019-05-01T02:55:31.785Z,93876.51
2019-05-01T02:58:00.255Z,93873.59
2019-05-01T03:00:28.458Z,93874.25
2019-05-01T03:02:56.638Z,93871.27
2019-05-01T03:05:25.195Z,93872.75
2019-05-01T03:07:53.670Z,93877.05
2019-05-01T03:10:21.857Z,93874.41
2019-05-01T03:12:50.044Z,93876.44
2019-05-01T03:15:18.914Z,93878.41
2019-05-01T03:17:48.737Z,93874.97
2019-05-01T03:20:21.249Z,93872.64
2019-05-01T03:23:08.850Z,93875.92
2019-05-01T03:25:37.315Z,93869.14
2019-05-01T03:28:05.791Z,93872.39
2019-05-01T03:30:34.278Z,93872.05
2019-05-01T03:33:02.528Z,93877.36
2019-05-01T03:35:31.046Z,93879.17
2019-05-01T03:37:59.536Z,93877.83
2019-05-01T03:40:27.730Z,93876.69
2019-05-01T03:42:55.909Z,93874.78
2019-05-01T03:45:24.118Z,93871.92
2019-05-01T03:47:52.304Z,93872.87
2019-05-01T03:50:21.778Z,93871.18
2019-05-01T03:52:50.516Z,93864.39
2019-05-01T03:55:18.709Z,93868.97
2019-05-01T03:57:46.900Z,93869.03
2019-05-01T04:00:32.743Z,93868.90
2019-05-01T04:03:17.881Z,93866.11
2019-05-01T04:05:46.404Z,93865.77
2019-05-01T04:08:14.890Z,93868.06
2019-05-01T04:10:43.078Z,93862.85
2019-05-01T04:13:11.263Z,93866.86
2019-05-01T04:15:39.461Z,93866.80
2019-05-01T04:18:08.915Z,93867.53
2019-05-01T04:20:37.114Z,93873.83
2019-05-01T04:23:05.297Z,93871.25
2019-05-01T04:25:33.479Z,93876.09
2019-05-01T04:28:03.318Z,93876.55
2019-05-01T04:30:49.758Z,93872.41
2019-05-01T04:33:19.882Z,93877.83
2019-05-01T04:35:49.710Z,93875.73
2019-05-01T04:38:18.679Z,93874.05
2019-05-01T04:40:47.173Z,93887.07
2019-05-01T04:43:15.646Z,93874.80
2019-05-01T04:45:43.828Z,93876.77
2019-05-01T04:48:12.036Z,93878.19
2019-05-01T04:50:40.377Z,93880.41
2019-05-01T04:53:08.574Z,93888.53
2019-05-01T04:55:36.924Z,93890.29
2019-05-01T04:58:05.121Z,93891.18
2019-05-01T05:00:33.996Z,93892.32
2019-05-01T05:03:06.778Z,93889.39
2019-05-01T05:05:34.963Z,93890.87
2019-05-01T05:08:03.450Z,93892.55
2019-05-01T05:10:31.784Z,93894.51
2019-05-01T05:13:02.057Z,93900.06
2019-05-01T05:15:40.852Z,93887.02
2019-05-01T05:18:09.340Z,93892.09
2019-05-01T05:20:37.523Z,93896.95
2019-05-01T05:23:05.720Z,93890.66
2019-05-01T05:25:34.481Z,93897.83
2019-05-01T05:28:02.679Z,93897.47
2019-05-01T05:30:31.053Z,93898.70
2019-05-01T05:32:59.275Z,93897.09
2019-05-01T05:35:27.789Z,93898.91
2019-05-01T05:37:57.796Z,93901.22
2019-05-01T05:40:27.619Z,93900.09
2019-05-01T05:42:56.195Z,93893.82
2019-05-01T05:45:24.390Z,93894.77
2019-05-01T05:47:52.577Z,93891.62
2019-05-01T05:50:22.412Z,93893.77
2019-05-01T05:52:58.163Z,93895.86
2019-05-01T05:55:27.987Z,93896.60
2019-05-01T05:57:57.814Z,93890.95
2019-05-01T06:00:33.852Z,93889.92
2019-05-01T06:03:07.942Z,93890.41
2019-05-01T06:05:40.583Z,93894.30
2019-05-01T06:08:22.434Z,93889.84
2019-05-01T06:11:01.302Z,93891.59
2019-05-01T06:13:37.488Z,93892.56
2019-05-01T06:16:07.327Z,93887.77
2019-05-01T06:18:46.299Z,93891.08
2019-05-01T06:21:19.367Z,93893.28
2019-05-01T06:24:05.948Z,93887.48
2019-05-01T06:26:31.947Z,93882.85
2019-05-01T06:29:02.003Z,93884.49
2019-05-01T06:31:30.747Z,93880.14
2019-05-01T06:33:58.990Z,93881.50
2019-05-01T06:36:27.133Z,93881.33
2019-05-01T06:38:55.487Z,93884.25
2019-05-01T06:41:23.959Z,93884.05
2019-05-01T06:43:57.006Z,93877.84
2019-05-01T06:46:27.221Z,93877.67
2019-05-01T06:49:00.687Z,93881.63
2019-05-01T06:51:36.108Z,93885.30
2019-05-01T06:54:11.353Z,93879.59
2019-05-01T06:56:36.818Z,93876.50
2019-05-01T06:59:05.862Z,93879.10
2019-05-01T07:01:34.651Z,93874.44
2019-05-01T07:04:03.796Z,93872.89
2019-05-01T07:06:32.967Z,93870.80
2019-05-01T07:09:01.208Z,93868.72
2019-05-01T07:11:29.498Z,93873.14
2019-05-01T07:13:57.978Z,93871.05
2019-05-01T07:16:26.177Z,93868.69
2019-05-01T07:18:58.049Z,93862.66
2019-05-01T07:21:27.713Z,93865.51
2019-05-01T07:23:55.828Z,93864.44
2019-05-01T07:26:24.017Z,93861.28
2019-05-01T07:28:53.840Z,93862.58
2019-05-01T07:31:25.938Z,93857.35
2019-05-01T07:33:52.495Z,93859.66
2019-05-01T07:36:20.972Z,93864.36
2019-05-01T07:38:49.461Z,93865.09
2019-05-01T07:41:17.655Z,93859.53
2019-05-01T07:43:47.476Z,93856.35
2019-05-01T07:46:20.325Z,93854.22
2019-05-01T07:48:48.826Z,93853.44
2019-05-01T07:51:17.013Z,93854.98
2019-05-01T07:53:45.469Z,93850.21
2019-05-01T07:56:13.952Z,93847.04
2019-05-01T07:58:42.133Z,93844.60
2019-05-01T08:01:28.242Z,93847.42
2019-05-01T08:03:56.698Z,93836.35
2019-05-01T08:06:25.189Z,93840.96
2019-05-01T08:08:53.670Z,93843.52
2019-05-01T08:11:21.863Z,93834.66
2019-05-01T08:13:50.051Z,93838.77
2019-05-01T08:16:18.252Z,93838.19
2019-05-01T08:18:48.640Z,93843.55
2019-05-01T08:24:04.303Z,93836.84
2019-05-01T08:26:32.500Z,93836.37
2019-05-01T08:29:03.028Z,93834.11
2019-05-01T08:31:46.160Z,93824.92
2019-05-01T08:34:25.433Z,93835.03
2019-05-01T08:36:54.733Z,93830.45
2019-05-01T08:39:22.917Z,93828.41
2019-05-01T08:41:51.129Z,93828.90
2019-05-01T08:44:24.801Z,93826.52
2019-05-01T08:46:53.040Z,93833.53
2019-05-01T08:49:32.450Z,93831.69
2019-05-01T08:52:04.826Z,93831.11
2019-05-01T08:54:33.621Z,93832.38
2019-05-01T08:57:00.491Z,93825.08
2019-05-01T08:59:28.671Z,93829.05
2019-05-01T09:02:08.882Z,93828.46
2019-05-01T09:04:30.642Z,93829.81
2019-05-01T09:06:57.365Z,93822.41
2019-05-01T09:09:25.552Z,93823.56
2019-05-01T09:11:54.745Z,93823.12
2019-05-01T09:14:23.010Z,93822.58
2019-05-01T09:16:52.563Z,93831.25
2019-05-01T09:19:20.971Z,93825.49
2019-05-01T09:24:17.988Z,93826.95
2019-05-01T09:26:50.240Z,93821.45
2019-05-01T09:29:28.192Z,93822.13
2019-05-01T09:31:56.380Z,93820.61
2019-05-01T09:34:24.574Z,93823.05
2019-05-01T09:36:52.764Z,93818.66
2019-05-01T09:39:28.350Z,93819.49
2019-05-01T09:41:56.593Z,93811.11
2019-05-01T09:44:24.992Z,93816.47
2019-05-01T09:46:53.245Z,93814.74
2019-05-01T09:49:22.017Z,93811.00
2019-05-01T09:51:51.840Z,93807.52
2019-05-01T09:54:24.325Z,93802.13
2019-05-01T09:56:52.786Z,93805.84
2019-05-01T09:59:20.981Z,93800.42
2019-05-01T10:01:49.752Z,93805.50
2019-05-01T10:04:18.233Z,93800.69
2019-05-01T10:06:47.635Z,93803.16
2019-05-01T10:09:18.050Z,93802.76
2019-05-01T10:11:46.800Z,93796.66
2019-05-01T10:14:15.230Z,93799.11
2019-05-01T10:16:43.410Z,93791.66
2019-05-01T10:19:11.605Z,93788.91
2019-05-01T10:21:39.785Z,93791.38
2019-05-01T10:24:07.977Z,93780.20
2019-05-01T10:26:37.804Z,93781.31
2019-05-01T10:29:10.527Z,93785.47
2019-05-01T10:31:42.917Z,93786.25
2019-05-01T10:34:23.935Z,93783.94
2019-05-01T10:36:54.458Z,93783.07
2019-05-01T10:39:22.312Z,93782.25
2019-05-01T10:41:50.970Z,93784.37
2019-05-01T10:44:19.440Z,93778.45
2019-05-01T10:46:47.628Z,93776.43
2019-05-01T10:49:15.826Z,93773.95
2019-05-01T10:51:44.011Z,93768.45
2019-05-01T10:54:12.201Z,93768.53
2019-05-01T10:56:40.378Z,93761.34
2019-05-01T10:59:08.573Z,93765.81
2019-05-01T11:01:47.118Z,93762.30
2019-05-01T11:04:16.302Z,93763.91
2019-05-01T11:06:44.788Z,93763.91
2019-05-01T11:09:13.250Z,93757.70
2019-05-01T11:11:41.434Z,93753.78
2019-05-01T11:14:09.772Z,93757.93
2019-05-01T11:16:37.951Z,93755.46
2019-05-01T11:19:06.148Z,93748.23
2019-05-01T11:21:34.334Z,93748.00
2019-05-01T11:24:02.549Z,93738.44
2019-05-01T11:26:30.730Z,93746.61
2019-05-01T11:28:58.922Z,93742.98
2019-05-01T11:31:28.740Z,93741.15
2019-05-01T11:33:58.905Z,93743.73
2019-05-01T11:36:34.204Z,93741.56
2019-05-01T11:39:20.166Z,93745.23
2019-05-01T11:42:05.077Z,93741.14
2019-05-01T11:44:33.270Z,93735.36
2019-05-01T11:47:01.762Z,93735.18
2019-05-01T11:49:29.952Z,93734.86
2019-05-01T11:51:58.133Z,93730.75
2019-05-01T11:54:26.430Z,93730.21
2019-05-01T11:56:54.609Z,93731.72
2019-05-01T11:59:23.291Z,93720.22
2019-05-01T12:01:51.479Z,93731.01
2019-05-01T12:04:19.663Z,93727.16
2019-05-01T12:06:48.020Z,93726.77
2019-05-01T12:09:16.461Z,93721.94
2019-05-01T12:11:46.294Z,93723.02
2019-05-01T12:14:14.472Z,93728.97
2019-05-01T12:16:59.684Z,93718.88
2019-05-01T12:19:31.578Z,93715.80
2019-05-01T12:22:00.062Z,93717.20
2019-05-01T12:24:28.250Z,93710.36
2019-05-01T12:26:56.861Z,93706.95
2019-05-01T12:29:25.036Z,93706.24
2019-05-01T12:31:53.418Z,93703.17
2019-05-01T12:34:21.598Z,93700.06
2019-05-01T12:36:50.658Z,93699.38
2019-05-01T12:39:19.417Z,93696.09
2019-05-01T12:41:57.890Z,93698.17
2019-05-01T12:44:26.058Z,93695.75
2019-05-01T12:47:10.963Z,93698.29
2019-05-01T12:49:39.311Z,93695.74
2019-05-01T12:52:10.738Z,93690.00
2019-05-01T12:54:57.409Z,93689.38
2019-05-01T12:57:25.648Z,93693.03
2019-05-01T12:59:53.837Z,93683.63
2019-05-01T13:02:22.032Z,93681.88
2019-05-01T13:04:50.262Z,93686.16
2019-05-01T13:07:18.458Z,93677.67
2019-05-01T13:09:46.639Z,93673.16
2019-05-01T13:12:15.100Z,93671.09
2019-05-01T13:14:43.278Z,93670.88
2019-05-01T13:17:11.487Z,93670.77
2019-05-01T13:19:40.015Z,93663.82
2019-05-01T13:22:08.205Z,93665.36
2019-05-01T13:24:38.021Z,93665.80
2019-05-01T13:27:11.043Z,93662.60
2019-05-01T13:29:40.865Z,93658.20
2019-05-01T13:32:11.017Z,93652.09
2019-05-01T13:34:39.191Z,93642.98
2019-05-01T13:37:08.008Z,93645.43
2019-05-01T13:39:36.185Z,93644.19
2019-05-01T13:42:05.248Z,93643.65
2019-05-01T13:44:33.424Z,93637.75
2019-05-01T13:47:01.626Z,93638.05
2019-05-01T13:49:30.076Z,93624.24
2019-05-01T13:51:58.276Z,93625.38
2019-05-01T13:54:26.453Z,93624.96
2019-05-01T13:56:54.900Z,93623.33
2019-05-01T13:59:23.076Z,93619.68
2019-05-01T14:01:51.573Z,93611.55
2019-05-01T14:04:21.724Z,93616.84
2019-05-01T14:06:50.000Z,93609.78
2019-05-01T14:09:19.827Z,93607.97
2019-05-01T14:11:48.045Z,93606.82
2019-05-01T14:14:16.234Z,93605.82
2019-05-01T14:16:44.704Z,93604.05
2019-05-01T14:19:12.898Z,93607.39
2019-05-01T14:21:58.906Z,93599.95
2019-05-01T14:24:37.751Z,93604.19
2019-05-01T14:27:07.859Z,93596.31
2019-05-01T14:29:36.180Z,93596.89
2019-05-01T14:32:04.372Z,93601.63
2019-05-01T14:34:32.555Z,93595.80
2019-05-01T14:37:00.745Z,93594.66
2019-05-01T14:39:29.336Z,93586.53
2019-05-01T14:41:57.886Z,93585.00
2019-05-01T14:44:36.196Z,93586.08
2019-05-01T14:46:56.589Z,93583.65
2019-05-01T14:49:24.808Z,93581.77
2019-05-01T14:51:52.985Z,93578.11
2019-05-01T14:54:21.588Z,93576.66
2019-05-01T14:56:49.768Z,93577.67
2019-05-01T14:59:18.918Z,93572.08
2019-05-01T15:01:47.399Z,93573.72
2019-05-01T15:04:15.669Z,93567.41
2019-05-01T15:06:44.043Z,93568.95
2019-05-01T15:09:12.238Z,93563.39
2019-05-01T15:11:41.585Z,93564.17
2019-05-01T15:14:16.868Z,93564.12
2019-05-01T15:17:01.696Z,93560.86
2019-05-01T15:19:40.002Z,93559.98
2019-05-01T15:22:08.184Z,93553.03
2019-05-01T15:24:36.692Z,93560.39
2019-05-01T15:27:05.171Z,93549.30
2019-05-01T15:29:33.363Z,93549.50
2019-05-01T15:32:01.545Z,93553.99
2019-05-01T15:34:29.728Z,93552.67
2019-05-01T15:36:57.910Z,93555.46
2019-05-01T15:39:31.062Z,93553.86
2019-05-01T15:42:15.888Z,93549.62
2019-05-01T15:44:44.720Z,93546.73
2019-05-01T15:47:12.905Z,93545.48
2019-05-01T15:49:41.098Z,93541.54
2019-05-01T15:52:09.369Z,93544.41
2019-05-01T15:54:37.561Z,93539.63
2019-05-01T15:57:05.743Z,93545.48
2019-05-01T15:59:34.011Z,93536.19
2019-05-01T16:02:02.194Z,93533.16
2019-05-01T16:04:30.450Z,93535.64
2019-05-01T16:06:58.624Z,93534.16
2019-05-01T16:09:27.602Z,93537.69
2019-05-01T16:12:06.283Z,93536.38
2019-05-01T16:14:34.797Z,93537.17
2019-05-01T16:17:03.075Z,93534.02
2019-05-01T16:19:31.265Z,93537.39
2019-05-01T16:21:59.449Z,93533.73
2019-05-01T16:24:28.043Z,93533.01
2019-05-01T16:26:56.490Z,93528.84
2019-05-01T16:29:24.697Z,93524.70
2019-05-01T16:31:53.145Z,93532.19
2019-05-01T16:34:21.459Z,93528.28
2019-05-01T16:36:49.899Z,93526.81
2019-05-01T16:39:35.982Z,93520.67
2019-05-01T16:42:04.158Z,93523.72
2019-05-01T16:44:33.078Z,93520.69
2019-05-01T16:47:01.257Z,93523.47
2019-05-01T16:49:29.432Z,93527.12
2019-05-01T16:51:57.729Z,93526.48
2019-05-01T16:54:25.910Z,93519.34
2019-05-01T16:56:54.110Z,93521.52
2019-05-01T16:59:22.291Z,93525.73
2019-05-01T17:01:57.868Z,93527.80
2019-05-01T17:04:34.040Z,93524.34
2019-05-01T17:07:16.438Z,93524.34
2019-05-01T17:09:49.208Z,93521.90
2019-05-01T17:12:19.149Z,93519.44
2019-05-01T17:14:47.338Z,93520.16
2019-05-01T17:17:17.423Z,93524.44
2019-05-01T17:19:45.619Z,93524.86
2019-05-01T17:22:16.049Z,93529.62
2019-05-01T17:24:44.399Z,93523.42
2019-05-01T17:27:12.589Z,93529.58
2019-05-01T17:29:40.772Z,93530.27
2019-05-01T17:32:10.662Z,93533.84
2019-05-01T17:34:38.842Z,93534.23
2019-05-01T17:37:07.337Z,93538.18
2019-05-01T17:39:35.821Z,93535.19
2019-05-01T17:42:05.054Z,93535.89
2019-05-01T17:44:33.485Z,93541.30
2019-05-01T17:47:01.672Z,93540.61
2019-05-01T17:49:29.852Z,93540.82
2019-05-01T17:51:58.152Z,93541.39
2019-05-01T17:54:26.328Z,93546.35
2019-05-01T17:56:55.813Z,93546.11
2019-05-01T17:59:24.077Z,93549.26
2019-05-01T18:01:53.908Z,93548.71
2019-05-01T18:04:38.769Z,93545.50
2019-05-01T18:07:07.230Z,93550.94
2019-05-01T18:09:35.414Z,93550.80
2019-05-01T18:12:03.888Z,93549.28
2019-05-01T18:14:32.370Z,93546.86
2019-05-01T18:17:00.853Z,93553.08
2019-05-01T18:19:29.336Z,93556.67
2019-05-01T18:21:59.166Z,93559.50
2019-05-01T18:24:44.731Z,93558.86
2019-05-01T18:27:26.595Z,93554.33
2019-05-01T18:29:56.413Z,93558.83
2019-05-01T18:32:47.483Z,93571.67
2019-05-01T18:35:14.255Z,93566.34
2019-05-01T18:37:44.775Z,93568.47
2019-05-01T18:40:17.487Z,93573.01
2019-05-01T18:42:45.673Z,93578.33
2019-05-01T18:45:20.053Z,93574.84
2019-05-01T18:47:49.307Z,93579.52
2019-05-01T18:50:17.490Z,93576.36
2019-05-01T18:52:45.677Z,93581.02
2019-05-01T18:55:13.945Z,93580.94
2019-05-01T18:57:42.138Z,93580.56
2019-05-01T19:00:10.578Z,93586.95
2019-05-01T19:02:39.076Z,93579.47
2019-05-01T19:05:08.765Z,93585.83
2019-05-01T19:07:37.569Z,93586.98
2019-05-01T19:10:05.917Z,93585.22
2019-05-01T19:12:34.178Z,93592.11
2019-05-01T19:15:05.580Z,93594.30
2019-05-01T19:17:32.249Z,93596.31
2019-05-01T19:20:00.706Z,93597.55
2019-05-01T19:22:28.872Z,93601.41
2019-05-01T19:24:57.323Z,93603.62
2019-05-01T19:27:25.588Z,93602.11
2019-05-01T19:29:53.777Z,93604.63
2019-05-01T19:32:23.631Z,93603.14
2019-05-01T19:34:51.929Z,93606.61
2019-05-01T19:37:21.923Z,93603.04
2019-05-01T19:39:53.827Z,93609.66
2019-05-01T19:42:22.088Z,93611.05
2019-05-01T19:44:51.066Z,93615.02
2019-05-01T19:47:20.519Z,93610.33
2019-05-01T19:49:48.726Z,93615.86
2019-05-01T19:52:17.265Z,93605.73
2019-05-01T19:54:45.680Z,93616.19
2019-05-01T19:57:13.864Z,93613.93
2019-05-01T19:59:42.336Z,93616.34
2019-05-01T20:02:12.187Z,93620.28
2019-05-01T20:04:40.476Z,93622.89
2019-05-01T20:07:10.520Z,93620.33
2019-05-01T20:09:39.171Z,93615.92
2019-05-01T20:12:07.710Z,93625.55
2019-05-01T20:14:36.194Z,93620.38
2019-05-01T20:17:09.847Z,93615.42
2019-05-01T20:19:34.585Z,93619.57
2019-05-01T20:22:02.786Z,93611.50
2019-05-01T20:24:31.351Z,93615.68
2019-05-01T20:26:59.535Z,93622.18
2019-05-01T20:29:28.028Z,93618.53
2019-05-01T20:31:56.210Z,93616.19
2019-05-01T20:34:24.458Z,93618.27
2019-05-01T20:36:52.942Z,93614.61
2019-05-01T20:39:23.751Z,93617.74
2019-05-01T20:41:51.560Z,93620.35
2019-05-01T20:44:23.867Z,93618.51
2019-05-01T20:46:50.346Z,93620.33
2019-05-01T20:49:18.543Z,93618.49
2019-05-01T20:51:46.725Z,93615.62
2019-05-01T20:54:15.011Z,93615.34
2019-05-01T20:56:47.568Z,93616.90
2019-05-01T20:59:15.757Z,93609.60
2019-05-01T21:01:46.399Z,93607.78
2019-05-01T21:04:15.624Z,93604.91
2019-05-01T21:06:45.736Z,93606.70
2019-05-01T21:09:18.346Z,93604.10
2019-05-01T21:11:48.876Z,93601.73
2019-05-01T21:14:22.567Z,93605.11
2019-05-01T21:16:47.609Z,93601.70
2019-05-01T21:19:15.792Z,93603.73
2019-05-01T21:21:44.246Z,93602.93
2019-05-01T21:24:13.966Z,93595.66
2019-05-01T21:26:43.367Z,93602.89
2019-05-01T21:29:13.761Z,93601.83
2019-05-01T21:31:41.574Z,93595.58
2019-05-01T21:34:09.748Z,93595.55
2019-05-01T21:36:38.229Z,93602.30
2019-05-01T21:39:06.398Z,93603.02
2019-05-01T21:41:34.602Z,93592.08
2019-05-01T21:44:04.157Z,93601.41
2019-05-01T21:46:34.032Z,93601.60
2019-05-01T21:49:03.574Z,93596.59
2019-05-01T21:51:32.860Z,93589.27
2019-05-01T21:54:02.910Z,93590.23
2019-05-01T21:56:31.032Z,93587.08
2019-05-01T21:59:03.842Z,93587.80
2019-05-01T22:01:30.169Z,93588.07
2019-05-01T22:03:59.172Z,93589.59
2019-05-01T22:06:27.813Z,93586.70
2019-05-01T22:08:56.561Z,93586.95
2019-05-01T22:11:24.754Z,93585.11
2019-05-01T22:13:55.097Z,93586.64
2019-05-01T22:16:24.895Z,93582.73
2019-05-01T22:18:54.956Z,93587.12
2019-05-01T22:21:36.619Z,93581.63
2019-05-01T22:24:22.426Z,93579.25
2019-05-01T22:27:01.508Z,93577.91
2019-05-01T22:29:32.347Z,93576.33
2019-05-01T22:32:19.037Z,93569.33
2019-05-01T22:34:52.127Z,93573.72
2019-05-01T22:37:20.317Z,93570.84
2019-05-01T22:39:50.142Z,93570.28
2019-05-01T22:42:18.547Z,93566.61
2019-05-01T22:44:46.716Z,93569.97
2019-05-01T22:47:16.230Z,93568.12
2019-05-01T22:49:44.774Z,93565.23
2019-05-01T22:52:12.990Z,93568.33
2019-05-01T22:54:44.872Z,93572.69
2019-05-01T22:57:11.085Z,93569.54
2019-05-01T22:59:39.732Z,93565.66
2019-05-01T23:02:15.761Z,93568.48
2019-05-01T23:04:43.943Z,93568.95
2019-05-01T23:07:16.877Z,93561.40
2019-05-01T23:09:42.604Z,93562.66
2019-05-01T23:12:10.796Z,93557.95
2019-05-01T23:14:38.975Z,93557.43
2019-05-01T23:17:23.816Z,93557.91
2019-05-01T23:19:52.069Z,93554.45
2019-05-01T23:22:21.027Z,93553.37
2019-05-01T23:24:49.208Z,93551.78
2019-05-01T23:27:17.703Z,93550.45
2019-05-01T23:29:45.881Z,93551.72
2019-05-01T23:32:14.561Z,93551.69
2019-05-01T23:34:42.739Z,93548.30
2019-05-01T23:37:10.922Z,93544.66
2019-05-01T23:39:40.436Z,93547.24
2019-05-01T23:42:09.010Z,93538.16
2019-05-01T23:44:38.091Z,93535.28
2019-05-01T23:47:07.407Z,93533.19
2019-05-01T23:49:35.597Z,93532.66
2019-05-01T23:52:05.182Z,93528.72
2019-05-01T23:54:33.515Z,93526.36
2019-05-01T23:57:01.763Z,93524.55
2019-05-01T23:59:30.543Z,93520.10
